Time;durP1;ratioP1;P1;durP2;ratioP2;P2;SDS_P1;SDS_P2;PMS_P1;PMS_P2;Temp;Humidity;BMP_temperature;BMP_pressure;BME280_temperature;BME280_humidity;BME280_pressure;Samples;Min_cycle;Max_cycle;Signal;HPM_P1;HPM_P2
2022/03/14 00:01:34;;;;;;;2.05;1.80;;;;;;;10.44;62.48;101563.47;5053011;28;20609;-82
2022/03/14 00:03:59;;;;;;;1.87;1.77;;;;;;;10.44;62.17;101566.91;5052957;28;20041;-83
2022/03/14 00:06:25;;;;;;;2.13;1.97;;;;;;;10.41;64.56;101564.34;5052185;28;20040;-82
2022/03/14 00:08:55;;;;;;;2.40;1.58;;;;;;;10.40;63.66;101570.41;5053215;28;20033;-83
2022/03/14 00:11:22;;;;;;;2.03;1.80;;;;;;;10.43;64.14;101572.09;5052176;28;20500;-80
2022/03/14 00:13:47;;;;;;;;;;;;;;;10.37;63.85;101575.56;5053783;28;20024;-81
2022/03/14 00:16:23;;;;;;;1.87;1.73;;;;;;;10.36;63.26;101574.69;5051161;28;19919;-81
2022/03/14 00:18:50;;;;;;;1.83;1.73;;;;;;;10.39;63.52;101575.56;5051831;28;20079;-80
2022/03/14 00:21:19;;;;;;;3.08;2.00;;;;;;;10.38;64.37;101579.03;5052692;28;20112;-80
2022/03/14 00:23:44;;;;;;;2.20;2.00;;;;;;;10.33;64.56;101579.00;5052898;28;20037;-81
2022/03/14 00:26:09;;;;;;;1.97;1.80;;;;;;;10.32;63.75;101588.53;5051785;28;20032;-81
2022/03/14 00:28:35;;;;;;;1.97;1.80;;;;;;;10.33;63.58;101595.47;5052771;28;20021;-81
2022/03/14 00:31:00;;;;;;;2.10;1.90;;;;;;;10.32;64.62;101598.03;5053016;28;20389;-80
2022/03/14 00:33:26;;;;;;;2.13;1.90;;;;;;;10.43;63.09;101596.31;5051854;28;20078;-80
2022/03/14 00:35:51;;;;;;;2.50;2.10;;;;;;;10.34;63.99;101601.50;5053135;28;20041;-81
2022/03/14 00:38:16;;;;;;;2.27;2.00;;;;;;;10.28;64.31;101602.38;5052742;28;20028;-81
2022/03/14 00:40:42;;;;;;;2.17;1.90;;;;;;;10.29;63.64;101609.28;5052238;28;20029;-81
2022/03/14 00:43:07;;;;;;;2.57;2.20;;;;;;;10.25;63.21;101601.53;5052930;28;20469;-81
2022/03/14 00:45:34;;;;;;;2.30;1.93;;;;;;;10.26;64.40;101619.66;5052514;28;20056;-81
2022/03/14 00:48:00;;;;;;;2.08;1.80;;;;;;;10.28;64.78;101617.94;5032028;28;20046;-81
2022/03/14 00:50:25;;;;;;;1.97;1.80;;;;;;;10.26;63.37;101617.06;5032674;28;20033;-80
2022/03/14 00:52:51;;;;;;;1.77;1.67;;;;;;;10.24;65.13;101616.25;5032724;28;20448;-81
2022/03/14 00:55:16;;;;;;;2.00;1.87;;;;;;;10.28;63.57;101624.88;5031724;28;20053;-80
2022/03/14 00:57:41;;;;;;;2.17;1.73;;;;;;;10.24;63.81;101630.94;5032729;28;20109;-81
2022/03/14 01:00:08;;;;;;;2.10;1.90;;;;;;;10.21;64.78;101634.41;5032564;28;20056;-80
2022/03/14 01:02:33;;;;;;;1.98;1.80;;;;;;;10.21;64.66;101637.00;5031903;28;20079;-81
2022/03/14 01:04:58;;;;;;;2.03;1.90;;;;;;;10.19;64.53;101638.72;5032564;28;20029;-81
2022/03/14 01:07:24;;;;;;;3.03;2.20;;;;;;;10.18;65.85;101645.66;5031829;28;20390;-81
2022/03/14 01:09:49;;;;;;;2.63;2.20;;;;;;;10.15;66.04;101644.75;5032685;28;20083;-81
2022/03/14 01:12:15;;;;;;;2.67;2.00;;;;;;;10.13;65.80;101654.28;5048321;28;20055;-81
2022/03/14 01:14:43;;;;;;;2.30;2.10;;;;;;;10.07;66.96;101649.09;5051987;28;20021;-81
2022/03/14 01:17:09;;;;;;;2.08;1.90;;;;;;;10.05;65.73;101649.94;5051909;28;20059;-81
2022/03/14 01:19:38;;;;;;;2.87;2.17;;;;;;;10.03;66.12;101659.47;5055741;28;20049;-81
2022/03/14 01:22:10;;;;;;;2.65;2.28;;;;;;;10.01;65.41;101656.03;5055654;28;20615;-81
2022/03/14 01:24:43;;;;;;;3.38;2.20;;;;;;;10.02;65.11;101655.13;5055867;28;20028;-81
2022/03/14 01:27:08;;;;;;;2.45;1.90;;;;;;;9.97;66.86;101654.28;5056238;28;20025;-81
2022/03/14 01:29:37;;;;;;;2.20;2.00;;;;;;;9.95;67.03;101653.41;5055024;28;20025;-81
2022/03/14 01:32:04;;;;;;;2.38;1.98;;;;;;;9.94;65.66;101666.38;5056512;28;20120;-81
2022/03/14 01:34:29;;;;;;;1.98;1.85;;;;;;;9.94;65.88;101671.56;5055443;28;20435;-81
2022/03/14 01:36:55;;;;;;;1.80;1.70;;;;;;;9.89;66.14;101662.06;5055523;28;20025;-81
2022/03/14 01:39:20;;;;;;;2.40;2.17;;;;;;;9.89;67.49;101669.84;5055915;28;20365;-80
2022/03/14 01:41:45;;;;;;;2.90;2.10;;;;;;;9.91;66.95;101679.34;5044338;28;20100;-81
2022/03/14 01:44:11;;;;;;;2.27;2.07;;;;;;;9.87;66.95;101675.88;5035405;28;20028;-80
2022/03/14 01:46:36;;;;;;;2.50;2.10;;;;;;;9.89;66.30;101666.38;5035564;28;20049;-81
2022/03/14 01:49:02;;;;;;;2.50;2.30;;;;;;;9.85;66.58;101670.69;5036225;28;20018;-81
2022/03/14 01:51:27;;;;;;;2.40;2.20;;;;;;;9.84;66.28;101678.47;5034965;28;20021;-81
2022/03/14 01:53:54;;;;;;;2.57;1.93;;;;;;;9.83;66.50;101676.75;5036060;28;20548;-80
2022/03/14 01:56:20;;;;;;;2.17;1.98;;;;;;;9.80;67.13;101677.59;5054334;28;20033;-81
2022/03/14 01:58:46;;;;;;;2.33;2.00;;;;;;;9.83;67.02;101685.41;5055103;28;20028;-82
2022/03/14 02:01:12;;;;;;;2.20;2.00;;;;;;;9.83;67.02;101692.28;5055751;28;20029;-83
2022/03/14 02:03:37;;;;;;;2.30;2.10;;;;;;;9.82;68.41;101696.63;5054544;28;20033;-82
2022/03/14 02:06:03;;;;;;;2.67;2.20;;;;;;;9.81;67.24;101694.91;5054035;28;20037;-82
2022/03/14 02:08:28;;;;;;;3.57;2.40;;;;;;;9.78;68.85;101691.44;5055384;28;20059;-82
2022/03/14 02:11:03;;;;;;;2.10;1.90;;;;;;;9.77;67.09;101695.75;5060280;28;20485;-83
2022/03/14 02:13:29;;;;;;;2.72;2.10;;;;;;;9.77;67.80;101697.47;5036101;28;20030;-83
2022/03/14 02:15:54;;;;;;;3.17;2.13;;;;;;;9.78;67.85;101704.41;5035184;28;20034;-82
2022/03/14 02:18:19;;;;;;;2.53;2.00;;;;;;;9.78;68.33;101705.25;5034478;28;20033;-82
2022/03/14 02:20:45;;;;;;;2.57;2.10;;;;;;;9.75;67.69;101700.06;5035643;28;20021;-83
2022/03/14 02:23:10;;;;;;;2.20;2.00;;;;;;;9.76;68.76;101712.16;5035576;28;20470;-83
2022/03/14 02:25:35;;;;;;;2.10;1.90;;;;;;;9.76;68.04;101711.31;5034348;28;20031;-83
2022/03/14 02:28:02;;;;;;;3.17;2.50;;;;;;;9.73;69.44;101715.63;5035177;28;20063;-81
2022/03/14 02:30:27;;;;;;;3.55;2.75;;;;;;;9.72;70.95;101715.63;5034330;28;20036;-81
2022/03/14 02:32:53;;;;;;;4.00;2.60;;;;;;;9.69;69.67;101711.28;5034323;28;20025;-81
2022/03/14 02:35:18;;;;;;;3.17;2.43;;;;;;;9.69;68.05;101716.47;5035430;28;20096;-80
2022/03/14 02:37:44;;;;;;;3.03;2.37;;;;;;;9.69;68.41;101719.06;5054801;28;20037;-80
2022/03/14 02:40:10;;;;;;;3.27;2.47;;;;;;;9.66;69.69;101713.88;5054349;28;20393;-80
2022/03/14 02:42:35;;;;;;;3.10;2.50;;;;;;;9.67;69.64;101718.22;5054597;28;20071;-81
2022/03/14 02:45:02;;;;;;;3.77;2.67;;;;;;;9.65;68.89;101717.34;5055186;28;20021;-81
2022/03/14 02:47:28;;;;;;;4.07;2.70;;;;;;;9.64;70.70;101718.19;5053645;28;20040;-81
2022/03/14 02:49:53;;;;;;;2.90;2.40;;;;;;;9.64;68.51;101723.38;5054594;28;20389;-81
2022/03/14 02:52:18;;;;;;;2.70;2.40;;;;;;;9.63;68.77;101726.81;5054633;28;20017;-81
2022/03/14 02:54:44;;;;;;;2.70;2.27;;;;;;;9.62;68.95;101732.88;5054010;28;20032;-81
2022/03/14 02:57:09;;;;;;;2.90;2.30;;;;;;;9.59;69.98;101732.84;5052839;28;20120;-80
2022/03/14 02:59:34;;;;;;;2.77;2.20;;;;;;;9.57;69.42;101738.03;5054291;28;20058;-81
2022/03/14 03:02:00;;;;;;;2.97;2.30;;;;;;;9.62;67.87;101751.00;5053971;28;20040;-81
2022/03/14 03:04:25;;;;;;;2.67;2.10;;;;;;;9.58;68.42;101752.72;5054526;28;20028;-81
2022/03/14 03:06:50;;;;;;;2.80;2.30;;;;;;;9.57;69.27;101748.41;5040086;28;20099;-80
2022/03/14 03:09:16;;;;;;;2.57;2.20;;;;;;;9.56;69.46;101757.03;5034445;28;20021;-81
2022/03/14 03:11:42;;;;;;;1.90;1.80;;;;;;;9.55;68.89;101759.63;5034440;28;20026;-80
2022/03/14 03:14:08;;;;;;;2.37;2.10;;;;;;;9.54;70.25;101770.84;5033371;28;20838;-81
2022/03/14 03:16:34;;;;;;;2.20;2.00;;;;;;;9.52;70.44;101769.97;5033970;28;20064;-80
2022/03/14 03:19:00;;;;;;;3.00;2.15;;;;;;;9.51;70.08;101783.78;5034584;28;20395;-80
2022/03/14 03:21:25;;;;;;;2.20;2.00;;;;;;;9.49;69.94;101782.91;5033380;28;20108;-80
2022/03/14 03:23:50;;;;;;;2.30;2.10;;;;;;;9.47;69.90;101789.81;5034695;28;20025;-80
2022/03/14 03:26:16;;;;;;;2.33;2.10;;;;;;;9.45;71.84;101788.97;5033324;28;20044;-81
2022/03/14 03:28:42;;;;;;;2.87;2.40;;;;;;;9.40;70.79;101792.38;5033395;28;20022;-80
2022/03/14 03:31:09;;;;;;;2.43;2.20;;;;;;;9.43;69.16;101807.06;5043567;28;20066;-81
2022/03/14 03:33:35;;;;;;;2.78;2.30;;;;;;;9.38;71.62;101822.59;5053593;28;20029;-81
2022/03/14 03:36:01;;;;;;;3.63;2.55;;;;;;;9.32;71.64;101820.00;5053217;28;20025;-81
2022/03/14 03:38:27;;;;;;;4.00;2.60;;;;;;;9.29;71.88;101826.88;5053630;28;20075;-81
2022/03/14 03:40:52;;;;;;;3.30;2.70;;;;;;;9.28;72.06;101826.00;5034161;28;20072;-80
2022/03/14 03:43:18;;;;;;;3.33;2.60;;;;;;;9.21;72.37;101825.09;5032453;28;20477;-81
2022/03/14 03:45:43;;;;;;;3.20;2.60;;;;;;;9.22;71.35;101838.91;5034029;28;20029;-81
2022/03/14 03:48:08;;;;;;;3.17;2.43;;;;;;;9.20;71.84;101840.63;5033427;28;20052;-80
2022/03/14 03:50:34;;;;;;;3.00;2.47;;;;;;;9.25;69.67;101844.09;5032895;28;20028;-81
2022/03/14 03:52:59;;;;;;;3.67;2.80;;;;;;;9.14;72.36;101853.53;5034005;28;20469;-81
2022/03/14 03:55:25;;;;;;;4.33;2.93;;;;;;;9.09;73.05;101858.66;5033436;28;20063;-80
2022/03/14 03:57:50;;;;;;;4.60;3.30;;;;;;;9.10;71.79;101865.59;5032553;28;20029;-80
2022/03/14 04:00:16;;;;;;;3.87;3.00;;;;;;;9.04;73.69;101870.75;5033465;28;20390;-80
2022/03/14 04:02:42;;;;;;;6.63;3.30;;;;;;;8.98;72.92;101875.84;5033676;28;20052;-81
2022/03/14 04:05:08;;;;;;;4.22;3.00;;;;;;;8.96;72.32;101881.03;5032839;28;20036;-80
2022/03/14 04:07:34;;;;;;;4.28;3.10;;;;;;;8.94;73.88;101890.50;5033365;28;20031;-80
2022/03/14 04:10:00;;;;;;;5.30;3.43;;;;;;;8.86;74.29;101881.81;5033444;28;20478;-81
2022/03/14 04:12:26;;;;;;;4.63;3.13;;;;;;;8.85;73.39;101890.44;5032622;28;20033;-80
2022/03/14 04:14:52;;;;;;;3.33;2.90;;;;;;;8.82;73.73;101896.44;5033538;28;20036;-81
2022/03/14 04:17:19;;;;;;;5.03;3.22;;;;;;;8.81;73.07;101905.06;5032202;28;20466;-81
2022/03/14 04:19:44;;;;;;;5.50;3.65;;;;;;;8.74;75.62;101898.97;5033429;28;20382;-80
2022/03/14 04:22:11;;;;;;;5.80;3.40;;;;;;;8.69;75.11;101904.94;5033367;28;20083;-81
2022/03/14 04:24:37;;;;;;;3.35;2.90;;;;;;;8.69;75.82;101918.75;5032420;28;20029;-81
2022/03/14 04:27:03;;;;;;;4.30;3.27;;;;;;;8.63;76.49;101913.53;5052381;28;20036;-81
2022/03/14 04:29:29;;;;;;;4.23;3.03;;;;;;;8.60;75.36;101916.06;5052980;28;20025;-81
2022/03/14 04:31:54;;;;;;;4.53;2.90;;;;;;;8.59;73.85;101915.22;5052401;28;20392;-81
2022/03/14 04:34:20;;;;;;;3.30;2.80;;;;;;;8.59;74.88;101924.69;5052598;28;20091;-80
2022/03/14 04:36:47;;;;;;;3.50;2.90;;;;;;;8.56;74.04;101929.81;5052803;28;20036;-81
2022/03/14 04:39:13;;;;;;;3.97;2.90;;;;;;;8.56;75.01;101929.81;5052085;28;20048;-81
2022/03/14 04:41:38;;;;;;;3.97;3.03;;;;;;;8.58;75.25;101929.00;5052511;28;20452;-80
2022/03/14 04:44:04;;;;;;;3.53;2.93;;;;;;;8.56;75.41;101937.56;5052800;28;20017;-81
2022/03/14 04:46:30;;;;;;;3.38;2.70;;;;;;;8.54;75.12;101944.47;5051265;28;20072;-81
2022/03/14 04:48:55;;;;;;;4.33;3.13;;;;;;;8.53;74.38;101950.50;5052900;28;20067;-81
2022/03/14 04:51:21;;;;;;;3.47;2.80;;;;;;;8.47;75.90;101943.50;5051895;28;20117;-81
2022/03/14 04:53:46;;;;;;;4.17;2.90;;;;;;;8.45;75.51;101948.66;5051882;28;20021;-80
2022/03/14 04:56:12;;;;;;;4.83;3.17;;;;;;;8.42;76.54;101952.94;5052049;28;20432;-81
2022/03/14 04:58:37;;;;;;;3.38;2.90;;;;;;;8.41;75.95;101962.41;5052528;28;20081;-81
2022/03/14 05:01:03;;;;;;;5.13;3.53;;;;;;;8.44;74.71;101961.56;5052076;28;20028;-80
2022/03/14 05:03:28;;;;;;;4.77;3.37;;;;;;;8.35;76.56;101970.09;5052402;28;20032;-81
2022/03/14 05:05:53;;;;;;;5.20;3.60;;;;;;;8.34;77.05;101983.88;5052604;28;20032;-80
2022/03/14 05:08:18;;;;;;;6.27;3.70;;;;;;;8.28;76.17;101976.91;5050652;28;20132;-81
2022/03/14 05:10:44;;;;;;;5.37;3.53;;;;;;;8.28;77.09;101988.97;5052482;28;20025;-81
2022/03/14 05:13:09;;;;;;;6.00;3.40;;;;;;;8.26;76.84;101995.84;5052662;28;20025;-81
2022/03/14 05:15:34;;;;;;;5.73;3.67;;;;;;;8.25;76.98;102000.16;5051663;28;20694;-81
2022/03/14 05:18:01;;;;;;;4.50;3.33;;;;;;;8.25;76.40;102004.44;5052612;28;20025;-81
2022/03/14 05:20:26;;;;;;;4.65;3.33;;;;;;;8.25;76.18;102000.16;5042464;28;20109;-80
2022/03/14 05:22:52;;;;;;;6.07;3.70;;;;;;;8.25;78.35;102007.03;5032485;28;20041;-80
2022/03/14 05:25:22;;;;;;;4.77;3.47;;;;;;;8.23;77.46;102014.78;5032530;28;20025;-81
2022/03/14 05:27:48;;;;;;;6.50;3.90;;;;;;;8.23;77.42;102014.78;5049682;28;20041;-80
2022/03/14 05:30:14;;;;;;;5.20;3.60;;;;;;;8.24;75.82;102023.41;5052416;28;20027;-80
2022/03/14 05:32:40;;;;;;;7.57;4.20;;;;;;;8.23;77.77;102027.72;5052304;28;20392;-81
2022/03/14 05:35:07;;;;;;;6.37;3.90;;;;;;;8.22;77.91;102030.28;5051692;28;20299;-81
2022/03/14 05:37:32;;;;;;;6.10;4.00;;;;;;;8.21;77.60;102031.13;5051830;28;20067;-81
2022/03/14 05:39:58;;;;;;;6.50;3.90;;;;;;;8.19;76.99;102036.28;5052197;28;20057;-81
2022/03/14 05:42:27;;;;;;;5.80;3.67;;;;;;;8.21;76.45;102049.25;5051365;28;20082;-81
2022/03/14 05:44:53;;;;;;;6.38;3.90;;;;;;;8.20;77.32;102048.34;5052128;28;20032;-81
2022/03/14 05:47:19;;;;;;;6.03;3.70;;;;;;;8.24;76.90;102057.91;5051797;28;20401;-81
2022/03/14 05:49:45;;;;;;;7.05;4.00;;;;;;;8.22;77.18;102064.78;5048306;28;20485;-81
2022/03/14 05:52:11;;;;;;;7.23;4.63;;;;;;;8.24;76.38;102064.78;5032013;28;20061;-80
2022/03/14 05:54:37;;;;;;;7.47;4.88;;;;;;;8.17;77.22;102066.41;5031907;28;20021;-81
2022/03/14 05:57:02;;;;;;;6.03;4.20;;;;;;;8.20;76.15;102066.47;5031295;28;20025;-81
2022/03/14 05:59:27;;;;;;;5.43;3.88;;;;;;;8.22;76.51;102076.84;5032804;28;20032;-81
2022/03/14 06:01:53;;;;;;;8.27;4.63;;;;;;;8.21;77.38;102078.53;5032286;28;20424;-81
2022/03/14 06:04:21;;;;;;;9.13;5.20;;;;;;;8.17;76.48;102075.06;5031348;28;20061;-81
2022/03/14 06:06:47;;;;;;;8.57;5.00;;;;;;;8.18;77.11;102084.56;5035566;28;20100;-81
2022/03/14 06:09:13;;;;;;;7.87;4.70;;;;;;;8.17;78.43;102090.56;5036018;28;20101;-81
2022/03/14 06:11:38;;;;;;;7.63;4.63;;;;;;;8.17;76.70;102095.75;5034658;28;20033;-81
2022/03/14 06:14:05;;;;;;;10.45;5.60;;;;;;;8.17;77.28;102093.16;5035822;28;20067;-80
2022/03/14 06:16:30;;;;;;;7.82;4.80;;;;;;;8.16;77.56;102093.16;5036062;28;20420;-81
2022/03/14 06:18:55;;;;;;;8.03;4.50;;;;;;;8.18;77.97;102100.06;5034847;28;20026;-81
2022/03/14 06:21:21;;;;;;;7.60;4.17;;;;;;;8.20;77.40;102105.25;5035205;28;20488;-80
2022/03/14 06:23:49;;;;;;;9.63;5.13;;;;;;;8.21;77.14;102107.00;5034963;28;20025;-81
2022/03/14 06:26:15;;;;;;;9.45;5.15;;;;;;;8.20;77.02;102110.41;5035499;28;20487;-81
2022/03/14 06:28:41;;;;;;;10.53;5.70;;;;;;;8.25;75.97;102115.66;5035378;28;20025;-81
2022/03/14 06:31:08;;;;;;;12.15;6.18;;;;;;;8.23;77.11;102127.69;5034522;28;20806;-81
2022/03/14 06:33:34;;;;;;;10.00;5.30;;;;;;;8.25;76.63;102126.91;5035074;28;20021;-81
2022/03/14 06:35:59;;;;;;;11.43;5.93;;;;;;;8.27;75.59;102132.09;5035304;28;20068;-81
2022/03/14 06:38:24;;;;;;;11.90;6.73;;;;;;;8.24;77.74;102135.50;5034609;28;20030;-81
2022/03/14 06:40:50;;;;;;;12.53;6.50;;;;;;;8.25;78.28;102139.81;5035380;28;20025;-81
2022/03/14 06:43:15;;;;;;;12.27;6.35;;;;;;;8.26;77.82;102136.41;5035236;28;20054;-81
2022/03/14 06:45:41;;;;;;;10.30;5.77;;;;;;;8.23;77.04;102144.09;5035469;28;20029;-81
2022/03/14 06:48:06;;;;;;;9.80;6.13;;;;;;;8.28;76.97;102139.00;5034994;28;20088;-83
2022/03/14 06:50:33;;;;;;;11.43;6.00;;;;;;;8.28;77.63;102144.16;5034909;28;20095;-83
2022/03/14 06:53:01;;;;;;;10.98;6.00;;;;;;;8.29;77.40;102146.75;5034466;28;20032;-82
2022/03/14 06:55:26;;;;;;;12.88;6.38;;;;;;;8.37;76.40;102156.38;5039940;28;20027;-82
2022/03/14 06:57:52;;;;;;;12.43;6.67;;;;;;;8.34;77.08;102158.06;5053723;28;20029;-82
2022/03/14 07:00:24;;;;;;;11.30;6.00;;;;;;;8.35;76.60;102154.63;5053018;28;20032;-81
2022/03/14 07:02:49;;;;;;;10.73;5.47;;;;;;;8.39;76.07;102158.13;5052955;28;20028;-82
2022/03/14 07:05:20;;;;;;;7.63;4.40;;;;;;;8.41;75.84;102159.03;5054677;28;20035;-81
2022/03/14 07:07:48;;;;;;;8.00;4.60;;;;;;;8.43;75.94;102165.09;5054211;28;20029;-82
2022/03/14 07:10:14;;;;;;;8.50;4.72;;;;;;;8.48;77.15;102171.22;5054563;28;20025;-82
2022/03/14 07:12:48;;;;;;;11.13;4.90;;;;;;;8.49;77.00;102177.28;5054241;28;20052;-82
2022/03/14 07:15:16;;;;;;;10.68;5.75;;;;;;;8.50;77.42;102182.47;5051949;28;20380;-82
2022/03/14 07:17:42;;;;;;;10.60;5.78;;;;;;;8.54;75.45;102173.03;5054329;28;20051;-81
2022/03/14 07:20:09;;;;;;;9.63;5.40;;;;;;;8.56;75.46;102178.22;5053798;28;20021;-82
2022/03/14 07:22:46;;;;;;;;;;;;;;;8.58;76.17;102182.59;5054771;28;20108;-81
2022/03/14 07:25:21;;;;;;;9.88;4.93;;;;;;;8.57;76.24;102183.44;5054447;28;19919;-85
2022/03/14 07:27:52;;;;;;;10.15;5.60;;;;;;;8.60;77.52;102178.31;5049448;28;20519;-85
2022/03/14 07:30:17;;;;;;;13.77;6.68;;;;;;;8.61;77.61;102185.22;5053893;28;20514;-79
2022/03/14 07:32:42;;;;;;;14.10;7.03;;;;;;;8.63;76.60;102190.44;5054177;28;20047;-82
2022/03/14 07:35:09;;;;;;;12.03;6.13;;;;;;;8.65;76.82;102189.59;5053214;28;20104;-80
2022/03/14 07:37:35;;;;;;;11.95;6.00;;;;;;;8.67;76.93;102187.00;5053841;28;20027;-80
2022/03/14 07:40:00;;;;;;;10.13;5.60;;;;;;;8.72;76.24;102195.72;5052344;28;20473;-80
2022/03/14 07:42:26;;;;;;;9.63;5.30;;;;;;;8.75;76.88;102194.91;5052879;28;20066;-80
2022/03/14 07:44:51;;;;;;;8.53;5.10;;;;;;;8.76;76.59;102192.34;5053895;28;20051;-80
2022/03/14 07:47:16;;;;;;;8.63;4.93;;;;;;;8.83;77.15;102195.00;5053543;28;20366;-80
2022/03/14 07:49:43;;;;;;;9.23;5.50;;;;;;;8.85;76.70;102201.94;5035292;28;20040;-80
2022/03/14 07:52:08;;;;;;;11.27;6.07;;;;;;;8.87;76.42;102205.41;5053910;28;20477;-77
2022/03/14 07:54:34;;;;;;;9.60;5.43;;;;;;;8.91;75.63;102204.63;5051705;28;20079;-77
2022/03/14 07:56:59;;;;;;;13.33;6.30;;;;;;;8.92;75.99;102214.13;5052853;28;20052;-78
2022/03/14 07:59:24;;;;;;;14.30;7.03;;;;;;;8.95;75.52;102213.31;5053327;28;20029;-80
2022/03/14 08:01:50;;;;;;;14.10;6.97;;;;;;;8.95;75.32;102221.06;5053520;28;20029;-81
2022/03/14 08:04:18;;;;;;;12.83;6.50;;;;;;;8.96;75.37;102217.63;5052883;28;20025;-82
2022/03/14 08:06:45;;;;;;;14.95;7.45;;;;;;;9.00;76.20;102229.78;5053716;28;20105;-81
2022/03/14 08:09:11;;;;;;;17.45;8.45;;;;;;;9.00;75.95;102227.19;5053516;28;20025;-80
2022/03/14 08:11:38;;;;;;;15.83;7.90;;;;;;;9.02;75.53;102227.19;5050992;28;20035;-81
2022/03/14 08:14:04;;;;;;;;;;;;;;;9.07;75.97;102239.38;5053674;28;20017;-78
2022/03/14 08:16:29;;;;;;;17.27;8.75;;;;;;;9.11;75.44;102246.34;5036412;28;19927;-79
2022/03/14 08:18:54;;;;;;;15.80;8.30;;;;;;;9.09;75.21;102248.03;5033498;28;20052;-79
2022/03/14 08:21:19;;;;;;;16.10;8.13;;;;;;;9.08;76.03;102251.47;5037438;28;20032;-79
2022/03/14 08:23:46;;;;;;;14.13;7.20;;;;;;;9.12;75.19;102254.97;5052580;28;20025;-79
2022/03/14 08:26:11;;;;;;;15.82;7.65;;;;;;;9.11;74.97;102261.00;5053192;28;20025;-83
2022/03/14 08:28:37;;;;;;;13.20;6.90;;;;;;;9.14;74.88;102267.91;5052170;28;20040;-82
2022/03/14 08:31:03;;;;;;;19.17;9.40;;;;;;;9.10;76.19;102261.84;5052375;28;20017;-81
2022/03/14 08:33:29;;;;;;;16.73;8.70;;;;;;;9.07;75.89;102273.03;5052972;28;20021;-82
2022/03/14 08:35:59;;;;;;;18.08;9.10;;;;;;;9.09;76.20;102262.69;5052728;28;20412;-82
2022/03/14 08:38:25;;;;;;;15.88;7.60;;;;;;;9.10;75.89;102277.38;5052201;28;20033;-82
2022/03/14 08:40:50;;;;;;;14.75;7.45;;;;;;;9.10;75.82;102275.66;5039518;28;20389;-83
2022/03/14 08:43:16;;;;;;;16.33;7.90;;;;;;;9.14;75.87;102283.47;5032928;28;20021;-83
2022/03/14 08:45:43;;;;;;;16.13;8.17;;;;;;;9.20;75.31;102286.16;5032150;28;20025;-82
2022/03/14 08:48:20;;;;;;;16.65;8.32;;;;;;;9.25;75.69;102287.97;5032729;28;20037;-83
2022/03/14 08:50:45;;;;;;;15.50;7.93;;;;;;;9.28;75.45;102287.13;5032897;28;20018;-82
2022/03/14 08:53:19;;;;;;;14.67;7.47;;;;;;;9.36;75.49;102295.84;5032109;28;20079;-84
2022/03/14 08:55:57;;;;;;;14.77;7.25;;;;;;;9.46;74.75;102299.44;5033615;28;20021;-82
2022/03/14 08:58:22;;;;;;;16.40;7.72;;;;;;;9.53;75.14;102311.63;5032222;28;20018;-82
2022/03/14 09:00:48;;;;;;;17.63;8.53;;;;;;;9.58;74.75;102309.09;5032372;28;20454;-82
2022/03/14 09:03:13;;;;;;;16.27;7.93;;;;;;;9.66;74.46;102322.16;5032338;28;20071;-83
2022/03/14 09:05:38;;;;;;;16.33;8.00;;;;;;;9.66;74.21;102323.03;5031787;28;20036;-82
2022/03/14 09:08:04;;;;;;;17.33;8.90;;;;;;;9.68;73.58;102326.50;5032880;28;20470;-83
2022/03/14 09:10:35;;;;;;;17.47;8.90;;;;;;;9.70;73.65;102335.16;5033570;28;20021;-80
2022/03/14 09:13:01;;;;;;;17.10;8.73;;;;;;;9.72;73.81;102340.38;5032077;28;20022;-80
2022/03/14 09:15:26;;;;;;;15.80;7.70;;;;;;;9.73;73.49;102345.56;5032462;28;20092;-80
2022/03/14 09:17:56;;;;;;;15.00;8.07;;;;;;;9.73;73.79;102347.31;5032504;28;20476;-79
2022/03/14 09:20:23;;;;;;;16.08;8.35;;;;;;;9.73;73.61;102345.56;5032414;28;20393;-79
2022/03/14 09:22:52;;;;;;;16.58;7.97;;;;;;;9.77;73.84;102343.88;5032356;28;20022;-79
2022/03/14 09:25:19;;;;;;;12.90;7.00;;;;;;;9.91;73.67;102350.97;5032423;28;20025;-79
2022/03/14 09:27:45;;;;;;;14.10;7.88;;;;;;;10.04;73.30;102350.25;5031823;28;20465;-79
2022/03/14 09:30:12;;;;;;;16.58;8.13;;;;;;;10.17;72.69;102352.16;5032567;28;20119;-81
2022/03/14 09:32:38;;;;;;;14.45;8.23;;;;;;;10.28;73.19;102357.44;5032290;28;20072;-80
2022/03/14 09:35:08;;;;;;;15.40;8.10;;;;;;;10.43;72.09;102358.47;5031575;28;20032;-80
2022/03/14 09:37:36;;;;;;;17.88;8.27;;;;;;;10.41;71.90;102365.38;5032029;28;20029;-81
2022/03/14 09:40:05;;;;;;;16.20;8.20;;;;;;;10.47;72.04;102379.28;5033488;28;20029;-82
2022/03/14 09:42:34;;;;;;;15.95;8.23;;;;;;;10.55;72.28;102379.38;5035133;28;20403;-82
2022/03/14 09:45:01;;;;;;;14.90;7.32;;;;;;;10.69;71.17;102389.00;5060996;22;20504;-82
2022/03/14 09:47:28;;;;;;;14.88;7.60;;;;;;;10.74;70.91;102389.91;5055973;28;20032;-81
2022/03/14 09:49:55;;;;;;;;;;;;;;;10.76;70.50;102389.06;5055909;28;20146;-83
2022/03/14 09:52:21;;;;;;;15.18;7.80;;;;;;;10.74;70.58;102396.00;5055481;28;20384;-83
2022/03/14 09:54:48;;;;;;;14.13;7.23;;;;;;;10.76;70.73;102402.03;5055671;28;20158;-79
2022/03/14 09:57:14;;;;;;;10.95;6.25;;;;;;;10.85;70.64;102408.19;5055930;28;20029;-80
2022/03/14 09:59:39;;;;;;;11.93;6.00;;;;;;;10.90;70.72;102414.28;5037225;28;20107;-80
2022/03/14 10:02:05;;;;;;;11.80;6.10;;;;;;;10.91;69.43;102409.13;5035319;28;20132;-81
2022/03/14 10:04:36;;;;;;;14.87;7.53;;;;;;;10.88;69.54;102418.59;5035699;28;20045;-80
2022/03/14 10:07:02;;;;;;;15.05;7.40;;;;;;;10.85;69.38;102422.03;5035564;28;20021;-81
2022/03/14 10:09:27;;;;;;;14.17;7.33;;;;;;;10.80;69.23;102424.59;5035323;28;20529;-80
2022/03/14 10:11:54;;;;;;;13.30;7.30;;;;;;;10.79;69.48;102424.59;5055810;28;20091;-81
2022/03/14 10:14:19;;;;;;;12.20;7.35;;;;;;;10.84;69.87;102428.09;5055491;28;20021;-80
2022/03/14 10:16:45;;;;;;;10.37;6.03;;;;;;;10.99;70.10;102427.34;5054631;28;20499;-81
2022/03/14 10:19:10;;;;;;;11.37;6.07;;;;;;;11.19;70.22;102424.91;5055201;28;20033;-80
2022/03/14 10:21:42;;;;;;;11.27;6.17;;;;;;;11.40;69.56;102425.91;5055496;28;20086;-83
2022/03/14 10:24:10;;;;;;;13.98;7.03;;;;;;;11.48;68.11;102428.56;5054966;28;20025;-84
2022/03/14 10:26:40;;;;;;;11.65;6.30;;;;;;;11.58;68.26;102427.75;5052729;28;20040;-85
2022/03/14 10:29:12;;;;;;;10.73;5.80;;;;;;;11.67;68.15;102429.56;5055693;28;20434;-86
2022/03/14 10:31:54;;;;;;;10.82;5.88;;;;;;;11.79;66.67;102441.75;5036571;28;20130;-87
2022/03/14 10:34:20;;;;;;;9.50;5.30;;;;;;;11.78;66.85;102445.22;5037371;28;20029;-81
2022/03/14 10:36:48;;;;;;;10.90;5.50;;;;;;;11.79;66.13;102452.16;5055657;28;20036;-81
2022/03/14 10:39:32;;;;;;;12.73;6.20;;;;;;;11.80;65.51;102448.69;5054468;28;20484;-81
2022/03/14 10:42:24;;;;;;;11.35;5.80;;;;;;;11.87;66.49;102447.88;5037503;28;20033;-86
2022/03/14 10:44:49;;;;;;;10.68;5.47;;;;;;;12.00;66.17;102459.25;5030504;28;20037;-81
2022/03/14 10:47:16;;;;;;;8.93;5.30;;;;;;;12.17;65.79;102454.09;5035132;28;20370;-82
2022/03/14 10:49:45;;;;;;;10.00;5.60;;;;;;;12.12;64.51;102461.91;5035022;28;20116;-80
2022/03/14 10:52:13;;;;;;;10.15;5.18;;;;;;;12.15;65.32;102461.03;5033704;28;20021;-80
2022/03/14 10:54:42;;;;;;;10.15;5.70;;;;;;;12.15;65.32;102463.63;5034706;28;20022;-80
2022/03/14 10:57:13;;;;;;;12.30;5.80;;;;;;;12.16;65.31;102467.97;5034983;28;20063;-80
2022/03/14 10:59:47;;;;;;;12.57;6.43;;;;;;;12.44;64.63;102470.69;5034016;28;20031;-81
2022/03/14 11:02:20;;;;;;;12.82;7.00;;;;;;;12.65;64.15;102473.34;5035116;28;20028;-81
2022/03/14 11:04:54;;;;;;;11.48;6.45;;;;;;;12.77;63.44;102469.03;5038674;28;20021;-81
2022/03/14 11:07:24;;;;;;;10.50;5.80;;;;;;;12.79;64.10;102472.50;5053854;28;20083;-82
2022/03/14 11:09:52;;;;;;;9.35;5.90;;;;;;;12.94;63.09;102469.06;5055308;28;20029;-82
2022/03/14 11:12:20;;;;;;;11.57;5.30;;;;;;;13.07;62.34;102470.78;5053637;28;20402;-82
2022/03/14 11:15:06;;;;;;;11.75;5.90;;;;;;;13.37;62.12;102478.59;5054680;28;20431;-82
2022/03/14 11:17:33;;;;;;;9.00;5.40;;;;;;;13.64;60.76;102479.47;5054252;28;20085;-82
2022/03/14 11:19:59;;;;;;;;;;;;;;;13.82;59.88;102478.56;5054427;28;20025;-82
2022/03/14 11:22:27;;;;;;;7.47;4.88;;;;;;;13.99;61.37;102479.38;5054165;28;19920;-85
2022/03/14 11:24:57;;;;;;;9.30;5.20;;;;;;;14.17;60.48;102474.97;5053442;28;20061;-82
2022/03/14 11:27:27;;;;;;;7.38;4.32;;;;;;;14.25;60.05;102482.75;5053056;28;20078;-82